createdAt,value
2017-09-04T00:00:00.330Z,0.00
2017-09-04T00:01:00.319Z,0.00
2017-09-04T00:02:00.312Z,0.00
2017-09-04T00:03:00.305Z,0.00
2017-09-04T00:04:00.297Z,0.00
2017-09-04T00:05:00.294Z,0.00
2017-09-04T00:06:00.287Z,0.00
2017-09-04T00:07:00.279Z,0.00
2017-09-04T00:08:00.271Z,0.00
2017-09-04T00:09:00.263Z,0.00
2017-09-04T00:10:00.255Z,0.00
2017-09-04T00:11:00.249Z,0.00
2017-09-04T00:12:00.240Z,0.00
2017-09-04T00:13:00.228Z,0.00
2017-09-04T00:14:00.222Z,0.00
2017-09-04T00:15:00.215Z,0.00
2017-09-04T00:16:00.206Z,0.00
2017-09-04T00:17:00.199Z,0.00
2017-09-04T00:18:00.192Z,0.00
2017-09-04T00:19:00.184Z,0.00
2017-09-04T00:20:00.175Z,0.00
2017-09-04T00:21:00.173Z,0.00
2017-09-04T00:22:00.166Z,0.00
2017-09-04T00:23:00.159Z,0.00
2017-09-04T00:24:00.149Z,0.00
2017-09-04T00:25:00.142Z,0.00
2017-09-04T00:26:00.136Z,0.00
2017-09-04T00:27:00.128Z,0.00
2017-09-04T00:28:00.120Z,0.00
2017-09-04T00:29:00.109Z,0.00
2017-09-04T00:30:00.100Z,0.00
2017-09-04T00:31:00.094Z,0.00
2017-09-04T00:32:00.087Z,0.00
2017-09-04T00:33:00.079Z,0.00
2017-09-04T00:34:00.072Z,0.00
2017-09-04T00:35:00.064Z,0.00
2017-09-04T00:36:00.057Z,0.00
2017-09-04T00:37:00.054Z,0.00
2017-09-04T00:38:00.047Z,0.00
2017-09-04T00:39:00.042Z,0.00
2017-09-04T00:40:00.038Z,0.00
2017-09-04T00:41:00.024Z,0.00
2017-09-04T00:42:00.018Z,0.00
2017-09-04T00:43:00.009Z,0.00
2017-09-04T00:44:00.003Z,0.00
2017-09-04T00:44:59.991Z,0.00
2017-09-04T00:45:59.983Z,0.00
2017-09-04T00:46:59.977Z,0.00
2017-09-04T00:47:59.968Z,0.00
2017-09-04T00:48:59.961Z,0.00
2017-09-04T00:49:59.952Z,0.00
2017-09-04T00:50:59.947Z,0.00
2017-09-04T00:51:59.938Z,0.00
2017-09-04T00:52:59.936Z,0.00
2017-09-04T00:53:59.929Z,0.00
2017-09-04T00:54:59.922Z,0.00
2017-09-04T00:55:59.914Z,0.00
2017-09-04T00:56:59.907Z,0.00
2017-09-04T00:57:59.899Z,0.00
2017-09-04T00:58:59.893Z,0.00
2017-09-04T00:59:59.884Z,0.00
2017-09-04T01:00:59.873Z,0.00
2017-09-04T01:01:59.866Z,0.00
2017-09-04T01:02:59.860Z,0.00
2017-09-04T01:03:59.852Z,0.00
2017-09-04T01:04:59.848Z,0.00
2017-09-04T01:05:59.841Z,0.00
2017-09-04T01:06:59.834Z,0.00
2017-09-04T01:07:59.826Z,0.00
2017-09-04T01:08:59.815Z,0.00
2017-09-04T01:09:59.808Z,0.00
2017-09-04T01:10:59.801Z,0.00
2017-09-04T01:11:59.792Z,0.00
2017-09-04T01:12:59.785Z,0.00
2017-09-04T01:13:59.779Z,0.00
2017-09-04T01:14:59.771Z,0.00
2017-09-04T01:15:59.764Z,0.00
2017-09-04T01:16:59.759Z,0.00
2017-09-04T01:17:59.757Z,0.00
2017-09-04T01:18:59.747Z,0.00
2017-09-04T01:19:59.738Z,0.00
2017-09-04T01:20:59.731Z,0.00
2017-09-04T01:21:59.723Z,0.00
2017-09-04T01:22:59.716Z,0.00
2017-09-04T01:23:59.708Z,0.00
2017-09-04T01:24:59.698Z,0.00
2017-09-04T01:25:59.691Z,0.00
2017-09-04T01:26:59.682Z,0.00
2017-09-04T01:27:59.674Z,0.00
2017-09-04T01:28:59.669Z,0.00
2017-09-04T01:29:59.660Z,0.00
2017-09-04T01:30:59.655Z,0.00
2017-09-04T01:31:59.647Z,0.00
2017-09-04T01:32:59.643Z,0.00
2017-09-04T01:33:59.637Z,0.00
2017-09-04T01:34:59.630Z,0.00
2017-09-04T01:35:59.622Z,0.00
2017-09-04T01:36:59.614Z,0.00
2017-09-04T01:37:59.607Z,0.00
2017-09-04T01:38:59.600Z,0.00
2017-09-04T01:39:59.590Z,0.00
2017-09-04T01:40:59.580Z,0.00
2017-09-04T01:41:59.574Z,0.00
2017-09-04T01:42:59.565Z,0.00
2017-09-04T01:43:59.558Z,0.00
2017-09-04T01:44:59.551Z,0.00
2017-09-04T01:45:59.548Z,0.00
2017-09-04T01:46:59.536Z,0.00
2017-09-04T01:47:59.528Z,0.00
2017-09-04T01:48:59.526Z,0.00
2017-09-04T01:49:59.520Z,0.00
2017-09-04T01:50:59.511Z,0.00
2017-09-04T01:51:59.502Z,0.00
2017-09-04T01:52:59.495Z,0.00
2017-09-04T01:53:59.488Z,0.00
2017-09-04T01:54:59.481Z,0.00
2017-09-04T01:55:59.473Z,0.00
2017-09-04T01:56:59.461Z,0.00
2017-09-04T01:57:59.455Z,0.00
2017-09-04T01:58:59.447Z,0.00
2017-09-04T01:59:59.439Z,0.00
2017-09-04T02:00:59.431Z,0.00
2017-09-04T02:01:59.424Z,0.00
2017-09-04T02:02:59.417Z,0.00
2017-09-04T02:03:59.409Z,0.00
2017-09-04T02:04:59.406Z,0.00
2017-09-04T02:05:59.398Z,0.00
2017-09-04T02:06:59.391Z,0.00
2017-09-04T02:07:59.383Z,0.00
2017-09-04T02:08:59.372Z,0.00
2017-09-04T02:09:59.365Z,0.00
2017-09-04T02:10:59.356Z,0.00
2017-09-04T02:11:59.348Z,0.00
2017-09-04T02:12:59.345Z,0.00
2017-09-04T02:13:59.338Z,0.00
2017-09-04T02:14:59.330Z,0.00
2017-09-04T02:15:59.321Z,0.00
2017-09-04T02:16:59.320Z,0.00
2017-09-04T02:17:59.308Z,0.00
2017-09-04T02:18:59.303Z,0.00
2017-09-04T02:19:59.292Z,0.00
2017-09-04T02:20:59.281Z,0.00
2017-09-04T02:21:59.272Z,0.00
2017-09-04T02:22:59.266Z,0.00
2017-09-04T02:23:59.257Z,0.00
2017-09-04T02:24:59.250Z,0.00
2017-09-04T02:25:59.246Z,0.00
2017-09-04T02:26:59.236Z,0.00
2017-09-04T02:27:59.227Z,0.00
2017-09-04T02:28:59.223Z,0.00
2017-09-04T02:29:59.217Z,0.00
2017-09-04T02:30:59.209Z,0.00
2017-09-04T02:31:59.200Z,0.00
2017-09-04T02:32:59.194Z,0.00
2017-09-04T02:33:59.190Z,0.00
2017-09-04T02:34:59.179Z,0.00
2017-09-04T02:35:59.170Z,0.00
2017-09-04T02:36:59.159Z,0.00
2017-09-04T02:37:59.151Z,0.00
2017-09-04T02:38:59.143Z,0.00
2017-09-04T02:39:59.135Z,0.00
2017-09-04T02:40:59.128Z,0.00
2017-09-04T02:41:59.120Z,0.00
2017-09-04T02:42:59.113Z,0.00
2017-09-04T02:43:59.105Z,0.00
2017-09-04T02:44:59.101Z,0.00
2017-09-04T02:45:59.098Z,0.00
2017-09-04T02:46:59.087Z,0.00
2017-09-04T02:47:59.078Z,0.00
2017-09-04T02:48:59.070Z,0.00
2017-09-04T02:49:59.062Z,0.00
2017-09-04T02:50:59.056Z,0.00
2017-09-04T02:51:59.047Z,0.00
2017-09-04T02:52:59.036Z,0.00
2017-09-04T02:53:59.028Z,0.00
2017-09-04T02:54:59.021Z,0.00
2017-09-04T02:55:59.012Z,0.00
2017-09-04T02:56:59.005Z,0.00
2017-09-04T02:57:58.997Z,0.00
2017-09-04T02:58:58.991Z,0.00
2017-09-04T02:59:58.981Z,0.00
2017-09-04T03:00:58.979Z,0.00
2017-09-04T03:01:58.970Z,0.00
2017-09-04T03:02:58.965Z,0.00
2017-09-04T03:03:58.955Z,0.00
2017-09-04T03:04:58.947Z,0.00
2017-09-04T03:05:58.940Z,0.00
2017-09-04T03:06:58.934Z,0.00
2017-09-04T03:07:58.949Z,0.00
2017-09-04T03:08:58.911Z,0.00
2017-09-04T03:09:58.903Z,0.00
2017-09-04T03:10:58.896Z,0.00
2017-09-04T03:11:58.888Z,0.00
2017-09-04T03:12:58.884Z,0.00
2017-09-04T03:13:58.878Z,0.00
2017-09-04T03:14:58.868Z,0.00
2017-09-04T03:15:58.861Z,0.00
2017-09-04T03:16:58.850Z,0.00
2017-09-04T03:17:58.841Z,0.00
2017-09-04T03:18:58.834Z,0.00
2017-09-04T03:19:58.825Z,0.00
2017-09-04T03:20:58.818Z,0.00
2017-09-04T03:21:58.811Z,0.00
2017-09-04T03:22:58.802Z,0.00
2017-09-04T03:23:58.794Z,0.00
2017-09-04T03:24:58.791Z,0.00
2017-09-04T03:25:58.783Z,0.00
2017-09-04T03:26:58.781Z,0.00
2017-09-04T03:27:58.766Z,0.00
2017-09-04T03:28:58.760Z,0.00
2017-09-04T03:29:58.751Z,0.00
2017-09-04T03:30:58.746Z,0.00
2017-09-04T03:31:58.735Z,0.00
2017-09-04T03:32:58.723Z,0.00
2017-09-04T03:33:58.716Z,0.00
2017-09-04T03:34:58.708Z,0.00
2017-09-04T03:35:58.700Z,0.00
2017-09-04T03:36:58.696Z,0.00
2017-09-04T03:37:58.685Z,0.00
2017-09-04T03:38:58.677Z,0.00
2017-09-04T03:39:58.668Z,0.00
2017-09-04T03:40:58.665Z,0.00
2017-09-04T03:41:58.658Z,0.00
2017-09-04T03:42:58.650Z,0.00
2017-09-04T03:43:58.641Z,0.00
2017-09-04T03:44:58.635Z,0.00
2017-09-04T03:45:58.625Z,0.00
2017-09-04T03:46:58.619Z,0.00
2017-09-04T03:47:58.609Z,0.00
2017-09-04T03:48:58.597Z,0.00
2017-09-04T03:49:58.591Z,0.00
2017-09-04T03:50:58.581Z,0.00
2017-09-04T03:51:58.575Z,0.00
2017-09-04T03:52:58.571Z,0.00
2017-09-04T03:53:58.560Z,0.00
2017-09-04T03:54:58.553Z,0.00
2017-09-04T03:55:58.544Z,0.00
2017-09-04T03:56:58.539Z,0.00
2017-09-04T03:57:58.538Z,0.00
2017-09-04T03:58:58.526Z,0.00
2017-09-04T03:59:58.516Z,0.00
2017-09-04T04:00:58.509Z,0.00
2017-09-04T04:01:58.500Z,0.00
2017-09-04T04:02:58.492Z,0.00
2017-09-04T04:03:58.486Z,0.00
2017-09-04T04:04:58.473Z,0.00
2017-09-04T04:05:58.467Z,0.00
2017-09-04T04:06:58.457Z,0.00
2017-09-04T04:07:58.448Z,0.00
2017-09-04T04:08:58.442Z,0.00
2017-09-04T04:09:58.436Z,0.00
2017-09-04T04:10:58.426Z,0.00
2017-09-04T04:11:58.417Z,0.00
2017-09-04T04:12:58.415Z,0.00
2017-09-04T04:13:58.408Z,0.00
2017-09-04T04:14:58.400Z,0.00
2017-09-04T04:15:58.390Z,0.00
2017-09-04T04:16:58.378Z,0.00
2017-09-04T04:17:58.372Z,0.00
2017-09-04T04:18:58.363Z,0.00
2017-09-04T04:19:58.355Z,0.00
2017-09-04T04:20:58.353Z,0.00
2017-09-04T04:21:58.344Z,0.00
2017-09-04T04:22:58.338Z,0.00
2017-09-04T04:23:58.328Z,0.00
2017-09-04T04:24:58.320Z,0.00
2017-09-04T04:25:58.313Z,0.00
2017-09-04T04:26:58.306Z,0.00
2017-09-04T04:27:58.297Z,0.00
2017-09-04T04:28:58.285Z,0.00
2017-09-04T04:29:58.277Z,0.00
2017-09-04T04:30:58.271Z,0.00
2017-09-04T04:31:58.262Z,0.00
2017-09-04T04:32:58.255Z,0.00
2017-09-04T04:33:58.246Z,0.00
2017-09-04T04:34:58.237Z,0.00
2017-09-04T04:35:58.231Z,0.00
2017-09-04T04:36:58.227Z,0.00
2017-09-04T04:37:58.220Z,0.00
2017-09-04T04:38:58.211Z,5.63
2017-09-04T04:39:58.204Z,5.63
2017-09-04T04:40:58.201Z,5.63
2017-09-04T04:41:58.187Z,5.63
2017-09-04T04:42:58.181Z,5.63
2017-09-04T04:43:58.171Z,11.25
2017-09-04T04:44:58.159Z,11.25
2017-09-04T04:45:58.153Z,11.25
2017-09-04T04:46:58.146Z,11.25
2017-09-04T04:47:58.137Z,16.88
2017-09-04T04:48:58.133Z,16.88
2017-09-04T04:49:58.120Z,16.88
2017-09-04T04:50:58.114Z,16.88
2017-09-04T04:51:58.104Z,22.50
2017-09-04T04:52:58.100Z,22.50
2017-09-04T04:53:58.094Z,28.13
2017-09-04T04:54:58.086Z,28.13
2017-09-04T04:55:58.077Z,33.75
2017-09-04T04:56:58.070Z,33.75
2017-09-04T04:57:58.062Z,39.38
2017-09-04T04:58:58.054Z,39.38
2017-09-04T04:59:58.047Z,45.00
2017-09-04T05:00:58.034Z,50.63
2017-09-04T05:01:58.027Z,50.63
2017-09-04T05:02:58.019Z,56.25
2017-09-04T05:03:58.012Z,56.25
2017-09-04T05:04:58.003Z,61.88
2017-09-04T05:05:57.997Z,67.50
2017-09-04T05:06:57.991Z,67.50
2017-09-04T05:07:57.980Z,73.13
2017-09-04T05:08:57.977Z,73.13
2017-09-04T05:09:57.969Z,78.75
2017-09-04T05:10:57.963Z,78.75
2017-09-04T05:11:57.953Z,84.38
2017-09-04T05:12:57.945Z,84.38
2017-09-04T05:13:57.939Z,90.00
2017-09-04T05:14:57.931Z,95.63
2017-09-04T05:15:57.923Z,101.25
2017-09-04T05:16:57.911Z,106.88
2017-09-04T05:17:57.903Z,112.50
2017-09-04T05:18:57.896Z,112.50
2017-09-04T05:19:57.889Z,118.13
2017-09-04T05:20:57.886Z,118.13
2017-09-04T05:21:57.877Z,118.13
2017-09-04T05:22:57.871Z,129.38
2017-09-04T05:23:57.863Z,135.00
2017-09-04T05:24:57.851Z,151.88
2017-09-04T05:25:57.845Z,202.50
2017-09-04T05:26:57.842Z,180.00
2017-09-04T05:27:57.830Z,185.63
2017-09-04T05:28:57.822Z,219.38
2017-09-04T05:29:57.814Z,191.25
2017-09-04T05:30:57.808Z,225.00
2017-09-04T05:31:57.800Z,219.38
2017-09-04T05:32:57.797Z,281.25
2017-09-04T05:33:57.791Z,281.25
2017-09-04T05:34:57.784Z,303.75
2017-09-04T05:35:57.776Z,331.88
2017-09-04T05:36:57.770Z,416.25
2017-09-04T05:37:57.763Z,495.00
2017-09-04T05:38:57.756Z,489.38
2017-09-04T05:39:57.749Z,410.63
2017-09-04T05:40:57.739Z,331.88
2017-09-04T05:41:57.731Z,303.75
2017-09-04T05:42:57.725Z,275.63
2017-09-04T05:43:57.719Z,264.38
2017-09-04T05:44:57.713Z,286.88
2017-09-04T05:45:57.706Z,326.25
2017-09-04T05:46:57.701Z,354.38
2017-09-04T05:47:57.695Z,326.25
2017-09-04T05:48:57.694Z,371.25
2017-09-04T05:49:57.688Z,354.38
2017-09-04T05:50:57.682Z,309.38
2017-09-04T05:51:57.677Z,337.50
2017-09-04T05:52:57.671Z,360.00
2017-09-04T05:53:57.666Z,376.88
2017-09-04T05:54:57.660Z,416.25
2017-09-04T05:55:57.655Z,427.50
2017-09-04T05:56:57.645Z,472.50
2017-09-04T05:57:57.642Z,450.00
2017-09-04T05:58:57.636Z,427.50
2017-09-04T05:59:57.629Z,438.75
2017-09-04T06:00:57.623Z,427.50
2017-09-04T06:01:57.619Z,585.00
2017-09-04T06:02:57.613Z,675.00
2017-09-04T06:03:57.607Z,703.13
2017-09-04T06:04:57.607Z,753.75
2017-09-04T06:05:57.603Z,770.63
2017-09-04T06:06:57.597Z,731.25
2017-09-04T06:07:57.593Z,663.75
2017-09-04T06:08:57.589Z,551.25
2017-09-04T06:09:57.586Z,450.00
2017-09-04T06:10:57.582Z,337.50
2017-09-04T06:11:57.576Z,309.38
2017-09-04T06:12:57.569Z,309.38
2017-09-04T06:13:57.564Z,326.25
2017-09-04T06:14:57.561Z,371.25
2017-09-04T06:15:57.556Z,438.75
2017-09-04T06:16:57.553Z,399.38
2017-09-04T06:17:57.549Z,444.38
2017-09-04T06:18:57.546Z,506.25
2017-09-04T06:19:57.541Z,472.50
2017-09-04T06:20:57.540Z,573.75
2017-09-04T06:21:57.542Z,781.88
2017-09-04T06:22:57.533Z,978.75
2017-09-04T06:23:57.529Z,1040.63
2017-09-04T06:24:57.522Z,1051.88
2017-09-04T06:25:57.518Z,1080.00
2017-09-04T06:26:57.514Z,1164.38
2017-09-04T06:27:57.510Z,1006.88
2017-09-04T06:28:57.512Z,1147.50
2017-09-04T06:29:57.508Z,765.00
2017-09-04T06:30:57.504Z,748.13
2017-09-04T06:31:57.502Z,826.88
2017-09-04T06:32:57.498Z,658.13
2017-09-04T06:33:57.495Z,956.25
2017-09-04T06:34:57.495Z,1451.25
2017-09-04T06:35:57.490Z,1406.25
2017-09-04T06:36:57.484Z,1147.50
2017-09-04T06:37:57.482Z,1158.75
2017-09-04T06:38:57.481Z,1029.38
2017-09-04T06:39:57.478Z,1006.88
2017-09-04T06:40:57.476Z,781.88
2017-09-04T06:41:57.475Z,1130.63
2017-09-04T06:42:57.472Z,1428.75
2017-09-04T06:43:57.471Z,1530.00
2017-09-04T06:44:57.474Z,1490.63
2017-09-04T06:45:57.472Z,1479.38
2017-09-04T06:46:57.471Z,1389.38
2017-09-04T06:47:57.470Z,1535.63
2017-09-04T06:48:57.469Z,1400.63
2017-09-04T06:49:57.469Z,1546.88
2017-09-04T06:50:57.468Z,1597.50
2017-09-04T06:51:57.468Z,1631.25
2017-09-04T06:52:57.503Z,1631.25
2017-09-04T06:53:57.464Z,1625.63
2017-09-04T06:54:57.466Z,1670.63
2017-09-04T06:55:57.464Z,1681.88
2017-09-04T06:56:57.465Z,1693.13
2017-09-04T06:57:57.467Z,1125.00
2017-09-04T06:58:57.470Z,945.00
2017-09-04T06:59:57.469Z,1068.75
2017-09-04T07:00:57.475Z,1170.00
2017-09-04T07:01:57.476Z,905.63
2017-09-04T07:02:57.479Z,860.63
2017-09-04T07:03:57.480Z,1074.38
2017-09-04T07:04:57.481Z,945.00
2017-09-04T07:05:57.484Z,838.13
2017-09-04T07:06:57.488Z,871.88
2017-09-04T07:07:57.487Z,736.88
2017-09-04T07:08:57.486Z,956.25
2017-09-04T07:09:57.488Z,933.75
2017-09-04T07:10:57.489Z,956.25
2017-09-04T07:11:57.491Z,855.00
2017-09-04T07:12:57.493Z,821.25
2017-09-04T07:13:57.496Z,866.25
2017-09-04T07:14:57.498Z,770.63
2017-09-04T07:15:57.499Z,860.63
2017-09-04T07:16:57.505Z,843.75
2017-09-04T07:17:57.507Z,1080.00
2017-09-04T07:18:57.510Z,911.25
2017-09-04T07:19:57.511Z,736.88
2017-09-04T07:20:57.514Z,781.88
2017-09-04T07:21:57.513Z,821.25
2017-09-04T07:22:57.516Z,652.50
2017-09-04T07:23:57.552Z,776.25
2017-09-04T07:24:57.515Z,596.25
2017-09-04T07:25:57.517Z,669.38
2017-09-04T07:26:57.518Z,810.00
2017-09-04T07:27:57.521Z,888.75
2017-09-04T07:28:57.523Z,1057.50
2017-09-04T07:29:57.525Z,933.75
2017-09-04T07:30:57.527Z,1327.50
2017-09-04T07:31:57.526Z,1462.50
2017-09-04T07:32:57.533Z,1535.63
2017-09-04T07:33:57.534Z,1479.38
2017-09-04T07:34:57.535Z,1603.13
2017-09-04T07:35:57.538Z,1693.13
2017-09-04T07:36:57.540Z,1693.13
2017-09-04T07:37:57.542Z,1653.75
2017-09-04T07:38:57.551Z,1293.75
2017-09-04T07:39:57.547Z,1001.25
2017-09-04T07:40:57.547Z,961.88
2017-09-04T07:41:57.549Z,1254.38
2017-09-04T07:42:57.553Z,967.50
2017-09-04T07:43:57.559Z,928.13
2017-09-04T07:44:57.559Z,933.75
2017-09-04T07:45:57.564Z,928.13
2017-09-04T07:46:57.566Z,1670.63
2017-09-04T07:47:57.568Z,1119.38
2017-09-04T07:48:57.578Z,1057.50
2017-09-04T07:49:57.580Z,1445.63
2017-09-04T07:50:57.584Z,1558.13
2017-09-04T07:51:57.585Z,1603.13
2017-09-04T07:52:57.589Z,1811.25
2017-09-04T07:53:57.593Z,2013.75
2017-09-04T07:54:57.595Z,1597.50
2017-09-04T07:55:57.599Z,1631.25
2017-09-04T07:56:57.597Z,1383.75
2017-09-04T07:57:57.601Z,1327.50
2017-09-04T07:58:57.606Z,1327.50
2017-09-04T07:59:57.608Z,1102.50
2017-09-04T08:00:57.614Z,1479.38
2017-09-04T08:01:57.617Z,2025.00
2017-09-04T08:02:57.622Z,1828.13
2017-09-04T08:03:57.626Z,1974.38
2017-09-04T08:04:57.633Z,1963.13
2017-09-04T08:05:57.640Z,1816.88
2017-09-04T08:06:57.644Z,2137.50
2017-09-04T08:07:57.654Z,2221.88
2017-09-04T08:08:57.655Z,2334.38
2017-09-04T08:09:57.665Z,2458.13
2017-09-04T08:10:57.669Z,2649.38
2017-09-04T08:11:57.671Z,2874.38
2017-09-04T08:12:57.675Z,3110.63
2017-09-04T08:13:57.682Z,3290.63
2017-09-04T08:14:57.689Z,3465.00
2017-09-04T08:15:57.695Z,3543.75
2017-09-04T08:16:57.702Z,3526.88
2017-09-04T08:17:57.711Z,3504.38
2017-09-04T08:18:57.720Z,3712.50
2017-09-04T08:19:57.726Z,3909.38
2017-09-04T08:20:57.739Z,3915.00
2017-09-04T08:21:57.748Z,3864.38
2017-09-04T08:22:57.757Z,3943.13
2017-09-04T08:23:57.767Z,4106.25
2017-09-04T08:24:57.779Z,4224.38
2017-09-04T08:25:57.784Z,4179.38
2017-09-04T08:26:57.834Z,4325.63
2017-09-04T08:27:57.803Z,4533.75
2017-09-04T08:28:57.809Z,4730.63
2017-09-04T08:29:57.820Z,4730.63
2017-09-04T08:30:57.831Z,4623.75
2017-09-04T08:31:57.839Z,4899.38
2017-09-04T08:32:57.856Z,4961.25
2017-09-04T08:33:57.866Z,4865.63
2017-09-04T08:34:57.878Z,4961.25
2017-09-04T08:35:57.889Z,5304.38
2017-09-04T08:36:57.894Z,5152.50
2017-09-04T08:37:57.909Z,5079.38
2017-09-04T08:38:57.919Z,5051.25
2017-09-04T08:39:57.930Z,4775.63
2017-09-04T08:40:57.940Z,4573.13
2017-09-04T08:41:57.953Z,4500.00
2017-09-04T08:42:57.965Z,4528.13
2017-09-04T08:43:57.976Z,4325.63
2017-09-04T08:44:57.992Z,4207.50
2017-09-04T08:45:58.005Z,4320.00
2017-09-04T08:46:58.017Z,4500.00
2017-09-04T08:47:58.029Z,4376.25
2017-09-04T08:48:58.041Z,4111.88
2017-09-04T08:49:58.054Z,4156.88
2017-09-04T08:50:58.066Z,4314.38
2017-09-04T08:51:58.077Z,4263.75
2017-09-04T08:52:58.087Z,4072.50
2017-09-04T08:53:58.103Z,3830.63
2017-09-04T08:54:58.116Z,3768.75
2017-09-04T08:55:58.124Z,3757.50
2017-09-04T08:56:58.139Z,3751.88
2017-09-04T08:57:58.151Z,3678.75
2017-09-04T08:58:58.165Z,3656.25
2017-09-04T08:59:58.178Z,3678.75
2017-09-04T09:00:58.196Z,3645.00
2017-09-04T09:01:58.209Z,3555.00
2017-09-04T09:02:58.224Z,3476.25
2017-09-04T09:03:58.235Z,3408.75
2017-09-04T09:04:58.248Z,3346.88
2017-09-04T09:05:58.261Z,3375.00
2017-09-04T09:06:58.276Z,3442.50
2017-09-04T09:07:58.287Z,3369.38
2017-09-04T09:08:58.297Z,3307.50
2017-09-04T09:09:58.313Z,3330.00
2017-09-04T09:10:58.327Z,3341.25
2017-09-04T09:11:58.338Z,3273.75
2017-09-04T09:12:58.354Z,3223.13
2017-09-04T09:13:58.368Z,3223.13
2017-09-04T09:14:58.381Z,3307.50
2017-09-04T09:15:58.398Z,3318.75
2017-09-04T09:16:58.413Z,3301.88
2017-09-04T09:17:58.427Z,3346.88
2017-09-04T09:18:58.440Z,3414.38
2017-09-04T09:19:58.454Z,3358.13
2017-09-04T09:20:58.469Z,3330.00
2017-09-04T09:21:58.481Z,3408.75
2017-09-04T09:22:58.495Z,3577.50
2017-09-04T09:23:58.508Z,3712.50
2017-09-04T09:24:58.518Z,3583.13
2017-09-04T09:25:58.531Z,3228.75
2017-09-04T09:26:58.545Z,3200.63
2017-09-04T09:27:58.558Z,3414.38
2017-09-04T09:28:58.570Z,3481.88
2017-09-04T09:29:58.582Z,3504.38
2017-09-04T09:30:58.597Z,3633.75
2017-09-04T09:31:58.608Z,3808.13
2017-09-04T09:32:58.625Z,3774.38
2017-09-04T09:33:58.664Z,3712.50
2017-09-04T09:34:58.650Z,3712.50
2017-09-04T09:35:58.663Z,3594.38
2017-09-04T09:36:58.670Z,3346.88
2017-09-04T09:37:58.685Z,3127.50
2017-09-04T09:38:58.698Z,3009.38
2017-09-04T09:39:58.708Z,3003.75
2017-09-04T09:40:58.726Z,2981.25
2017-09-04T09:41:58.738Z,2964.38
2017-09-04T09:42:58.750Z,2986.88
2017-09-04T09:43:58.762Z,2998.13
2017-09-04T09:44:58.776Z,3015.00
2017-09-04T09:45:58.788Z,3037.50
2017-09-04T09:46:58.800Z,3048.75
2017-09-04T09:47:58.813Z,3031.88
2017-09-04T09:48:58.821Z,3065.63
2017-09-04T09:49:58.833Z,2649.38
2017-09-04T09:50:58.847Z,3009.38
2017-09-04T09:51:58.858Z,3037.50
2017-09-04T09:52:58.872Z,3099.38
2017-09-04T09:53:58.884Z,3110.63
2017-09-04T09:54:58.899Z,3121.88
2017-09-04T09:55:58.910Z,3121.88
2017-09-04T09:56:58.927Z,3127.50
2017-09-04T09:57:58.940Z,3110.63
2017-09-04T09:58:58.952Z,3093.75
2017-09-04T09:59:58.965Z,3071.25
2017-09-04T10:00:58.978Z,3071.25
2017-09-04T10:01:58.989Z,3065.63
2017-09-04T10:02:59.006Z,3048.75
2017-09-04T10:03:59.016Z,3054.38
2017-09-04T10:04:59.024Z,3031.88
2017-09-04T10:05:59.037Z,3003.75
2017-09-04T10:06:59.050Z,2941.88
2017-09-04T10:07:59.063Z,2891.25
2017-09-04T10:08:59.076Z,2880.00
2017-09-04T10:09:59.090Z,2818.13
2017-09-04T10:10:59.103Z,2778.75
2017-09-04T10:11:59.114Z,2739.38
2017-09-04T10:12:59.132Z,2688.75
2017-09-04T10:13:59.147Z,2632.50
2017-09-04T10:14:59.159Z,2587.50
2017-09-04T10:15:59.173Z,2559.38
2017-09-04T10:16:59.187Z,2536.88
2017-09-04T10:17:59.200Z,2503.13
2017-09-04T10:18:59.213Z,2475.00
2017-09-04T10:19:59.226Z,2396.25
2017-09-04T10:20:59.235Z,2362.50
2017-09-04T10:21:59.250Z,2345.63
2017-09-04T10:22:59.263Z,2328.75
2017-09-04T10:23:59.276Z,2306.25
2017-09-04T10:24:59.290Z,2300.63
2017-09-04T10:25:59.304Z,2311.88
2017-09-04T10:26:59.317Z,2272.50
2017-09-04T10:27:59.331Z,2250.00
2017-09-04T10:28:59.350Z,2255.63
2017-09-04T10:29:59.362Z,3183.75
2017-09-04T10:30:59.377Z,5748.75
2017-09-04T10:31:59.390Z,6249.38
2017-09-04T10:32:59.403Z,5743.13
2017-09-04T10:33:59.420Z,5473.13
2017-09-04T10:34:59.432Z,5248.13
2017-09-04T10:35:59.445Z,5113.13
2017-09-04T10:36:59.456Z,5101.88
2017-09-04T10:37:59.469Z,5130.00
2017-09-04T10:38:59.485Z,4950.00
2017-09-04T10:39:59.497Z,4876.88
2017-09-04T10:40:59.515Z,5028.75
2017-09-04T10:41:59.530Z,5146.88
2017-09-04T10:42:59.543Z,5073.75
2017-09-04T10:43:59.557Z,5062.50
2017-09-04T10:44:59.566Z,5045.63
2017-09-04T10:45:59.580Z,5090.63
2017-09-04T10:46:59.595Z,4938.75
2017-09-04T10:47:59.608Z,5248.13
2017-09-04T10:48:59.621Z,5304.38
2017-09-04T10:49:59.635Z,5208.75
2017-09-04T10:50:59.649Z,5006.25
2017-09-04T10:51:59.662Z,4702.50
2017-09-04T10:52:59.680Z,5186.25
2017-09-04T10:53:59.693Z,5056.88
2017-09-04T10:54:59.708Z,4910.63
2017-09-04T10:55:59.720Z,1929.38
2017-09-04T10:56:59.733Z,5000.63
2017-09-04T10:57:59.746Z,4944.38
2017-09-04T10:58:59.761Z,4786.88
2017-09-04T10:59:59.772Z,5011.88
2017-09-04T11:00:59.784Z,5085.00
2017-09-04T11:01:59.797Z,5079.38
2017-09-04T11:02:59.810Z,5017.50
2017-09-04T11:03:59.822Z,5191.88
2017-09-04T11:04:59.835Z,5101.88
2017-09-04T11:05:59.849Z,5191.88
2017-09-04T11:06:59.863Z,5101.88
2017-09-04T11:07:59.895Z,5180.63
2017-09-04T11:08:59.892Z,5068.13
2017-09-04T11:09:59.906Z,4848.75
2017-09-04T11:10:59.921Z,4989.38
2017-09-04T11:11:59.938Z,4730.63
2017-09-04T11:12:59.946Z,4747.50
2017-09-04T11:13:59.964Z,4674.38
2017-09-04T11:14:59.974Z,4466.25
2017-09-04T11:15:59.986Z,4269.38
2017-09-04T11:16:59.995Z,4837.50
2017-09-04T11:18:00.010Z,5056.88
2017-09-04T11:19:00.022Z,4314.38
2017-09-04T11:20:00.034Z,4522.50
2017-09-04T11:21:00.046Z,4376.25
2017-09-04T11:22:00.058Z,1631.25
2017-09-04T11:23:00.071Z,922.50
2017-09-04T11:24:00.084Z,967.50
2017-09-04T11:25:00.098Z,804.38
2017-09-04T11:26:00.111Z,759.38
2017-09-04T11:27:00.121Z,765.00
2017-09-04T11:28:00.133Z,810.00
2017-09-04T11:29:00.143Z,798.75
2017-09-04T11:30:00.155Z,641.25
2017-09-04T11:31:00.164Z,630.00
2017-09-04T11:32:00.173Z,770.63
2017-09-04T11:33:00.179Z,815.63
2017-09-04T11:34:00.188Z,770.63
2017-09-04T11:35:00.198Z,703.13
2017-09-04T11:36:00.205Z,686.25
2017-09-04T11:37:00.213Z,680.63
2017-09-04T11:38:00.221Z,680.63
2017-09-04T11:39:00.228Z,731.25
2017-09-04T11:40:00.235Z,770.63
2017-09-04T11:41:00.247Z,793.13
2017-09-04T11:42:00.253Z,821.25
2017-09-04T11:43:00.260Z,832.50
2017-09-04T11:44:00.270Z,815.63
2017-09-04T11:45:00.268Z,810.00
2017-09-04T11:46:00.274Z,815.63
2017-09-04T11:47:00.281Z,821.25
2017-09-04T11:48:00.285Z,770.63
2017-09-04T11:49:00.296Z,810.00
2017-09-04T11:50:00.301Z,748.13
2017-09-04T11:51:00.308Z,675.00
2017-09-04T11:52:00.312Z,748.13
2017-09-04T11:53:00.317Z,725.63
2017-09-04T11:54:00.321Z,753.75
2017-09-04T11:55:00.327Z,714.38
2017-09-04T11:56:00.332Z,720.00
2017-09-04T11:57:00.332Z,686.25
2017-09-04T11:58:00.339Z,669.38
2017-09-04T11:59:00.341Z,669.38
2017-09-04T12:00:00.344Z,630.00
2017-09-04T12:01:00.350Z,573.75
2017-09-04T12:02:00.355Z,573.75
2017-09-04T12:03:00.359Z,624.38
2017-09-04T12:04:00.361Z,691.88
2017-09-04T12:05:00.374Z,725.63
2017-09-04T12:06:00.374Z,770.63
2017-09-04T12:07:00.376Z,686.25
2017-09-04T12:08:00.380Z,826.88
2017-09-04T12:09:00.382Z,770.63
2017-09-04T12:10:00.386Z,770.63
2017-09-04T12:11:00.391Z,776.25
2017-09-04T12:12:00.397Z,770.63
2017-09-04T12:13:00.393Z,663.75
2017-09-04T12:14:00.395Z,596.25
2017-09-04T12:15:00.398Z,601.88
2017-09-04T12:16:00.401Z,590.63
2017-09-04T12:17:00.405Z,573.75
2017-09-04T12:18:00.407Z,568.13
2017-09-04T12:19:00.411Z,562.50
2017-09-04T12:20:00.413Z,596.25
2017-09-04T12:21:00.418Z,601.88
2017-09-04T12:22:00.422Z,607.50
2017-09-04T12:23:00.425Z,624.38
2017-09-04T12:24:00.431Z,646.88
2017-09-04T12:25:00.431Z,658.13
2017-09-04T12:26:00.432Z,646.88
2017-09-04T12:27:00.435Z,618.75
2017-09-04T12:28:00.440Z,573.75
2017-09-04T12:29:00.434Z,562.50
2017-09-04T12:30:00.438Z,556.88
2017-09-04T12:31:00.439Z,545.63
2017-09-04T12:32:00.441Z,562.50
2017-09-04T12:33:00.442Z,596.25
2017-09-04T12:34:00.444Z,624.38
2017-09-04T12:35:00.447Z,646.88
2017-09-04T12:36:00.448Z,646.88
2017-09-04T12:37:00.454Z,697.50
2017-09-04T12:38:00.457Z,697.50
2017-09-04T12:39:00.460Z,714.38